createdAt,value
2019-02-09T00:01:09.330Z,4.97
2019-02-09T00:03:36.718Z,11.33
2019-02-09T00:08:57.747Z,4.37
2019-02-09T00:11:25.358Z,3.43
2019-02-09T00:13:53.216Z,3.90
2019-02-09T00:16:21.671Z,5.63
2019-02-09T00:18:50.492Z,4.13
2019-02-09T00:21:19.792Z,4.73
2019-02-09T00:23:47.120Z,8.27
2019-02-09T00:26:14.423Z,4.17
2019-02-09T00:28:41.809Z,3.13
2019-02-09T00:31:09.380Z,5.00
2019-02-09T00:33:36.662Z,8.63
2019-02-09T00:36:04.115Z,5.27
2019-02-09T00:38:31.577Z,6.00
2019-02-09T00:41:11.827Z,2.30
2019-02-09T00:43:42.620Z,8.53
2019-02-09T00:46:10.490Z,4.50
2019-02-09T00:48:37.874Z,3.40
2019-02-09T00:51:05.280Z,4.03
2019-02-09T00:53:32.532Z,5.40
2019-02-09T00:55:59.766Z,5.77
2019-02-09T00:58:27.049Z,4.80
2019-02-09T01:00:54.459Z,4.87
2019-02-09T01:03:21.976Z,2.03
2019-02-09T01:05:49.292Z,4.40
2019-02-09T01:08:16.520Z,4.30
2019-02-09T01:10:45.795Z,8.17
2019-02-09T01:13:13.324Z,2.53
2019-02-09T01:15:40.576Z,1.53
2019-02-09T01:18:07.815Z,4.10
2019-02-09T01:20:35.081Z,14.07
2019-02-09T01:23:03.099Z,2.80
2019-02-09T01:25:30.427Z,7.47
2019-02-09T01:27:57.658Z,6.93
2019-02-09T01:30:25.515Z,5.53
2019-02-09T01:32:52.762Z,6.40
2019-02-09T01:35:20.091Z,3.13
2019-02-09T01:37:48.440Z,8.63
2019-02-09T01:40:25.701Z,7.23
2019-02-09T01:42:53.067Z,7.83
2019-02-09T01:45:25.751Z,8.33
2019-02-09T01:47:53.248Z,5.83
2019-02-09T01:50:20.622Z,7.17
2019-02-09T01:52:47.849Z,8.83
2019-02-09T01:55:16.098Z,10.30
2019-02-09T01:57:44.355Z,7.80
2019-02-09T02:00:20.737Z,6.23
2019-02-09T02:02:48.764Z,6.40
2019-02-09T02:05:19.167Z,6.67
2019-02-09T02:07:46.888Z,5.00
2019-02-09T02:10:17.959Z,6.90
2019-02-09T02:12:45.289Z,5.00
2019-02-09T02:15:15.012Z,3.17
2019-02-09T02:17:42.491Z,8.27
2019-02-09T02:20:14.335Z,10.77
2019-02-09T02:22:42.151Z,10.00
2019-02-09T02:25:09.459Z,9.03
2019-02-09T02:27:36.768Z,5.53
2019-02-09T02:30:06.191Z,3.60
2019-02-09T02:32:33.541Z,4.67
2019-02-09T02:35:00.774Z,6.63
2019-02-09T02:37:28.043Z,3.00
2019-02-09T02:39:55.292Z,7.90
2019-02-09T02:42:22.659Z,8.27
2019-02-09T02:44:49.980Z,5.10
2019-02-09T02:47:17.225Z,4.47
2019-02-09T02:49:44.474Z,4.30
2019-02-09T02:52:11.807Z,4.57
2019-02-09T02:54:39.049Z,6.00
2019-02-09T02:57:06.316Z,9.93
2019-02-09T02:59:33.641Z,9.23
2019-02-09T03:02:00.901Z,3.67
2019-02-09T03:04:28.241Z,4.90
2019-02-09T03:06:55.497Z,7.33
2019-02-09T03:09:22.740Z,3.50
2019-02-09T03:11:50.011Z,7.23
2019-02-09T03:14:17.262Z,5.53
2019-02-09T03:16:44.476Z,5.67
2019-02-09T03:19:11.717Z,5.00
2019-02-09T03:21:38.983Z,4.43
2019-02-09T03:24:06.210Z,3.07
2019-02-09T03:26:33.415Z,3.23
2019-02-09T03:29:00.767Z,4.70
2019-02-09T03:31:28.033Z,5.70
2019-02-09T03:33:55.282Z,3.67
2019-02-09T03:36:22.533Z,5.60
2019-02-09T03:38:49.798Z,5.23
2019-02-09T03:41:17.041Z,6.63
2019-02-09T03:43:44.316Z,5.53
2019-02-09T03:46:11.567Z,2.63
2019-02-09T03:48:38.803Z,2.27
2019-02-09T03:51:06.048Z,5.10
2019-02-09T03:53:33.283Z,4.23
2019-02-09T03:56:00.539Z,4.67
2019-02-09T03:58:27.897Z,3.07
2019-02-09T04:00:56.005Z,5.40
2019-02-09T04:03:23.484Z,4.83
2019-02-09T04:05:50.709Z,2.37
2019-02-09T04:08:17.995Z,5.37
2019-02-09T04:10:45.248Z,2.93
2019-02-09T04:13:12.492Z,4.03
2019-02-09T04:15:39.724Z,4.53
2019-02-09T04:18:06.988Z,2.60
2019-02-09T04:20:34.285Z,2.90
2019-02-09T04:23:01.614Z,4.60
2019-02-09T04:25:28.856Z,2.33
2019-02-09T04:27:56.099Z,2.90
2019-02-09T04:30:28.044Z,2.87
2019-02-09T04:32:55.382Z,1.87
2019-02-09T04:35:22.886Z,2.00
2019-02-09T04:37:50.134Z,2.40
2019-02-09T04:40:20.095Z,3.30
2019-02-09T04:42:47.351Z,3.40
2019-02-09T04:45:14.993Z,4.10
2019-02-09T04:47:42.234Z,3.97
2019-02-09T04:50:09.744Z,5.50
2019-02-09T04:52:36.988Z,2.53
2019-02-09T04:55:05.642Z,3.93
2019-02-09T04:57:33.199Z,6.80
2019-02-09T05:00:00.443Z,3.90
2019-02-09T05:02:27.684Z,5.50
2019-02-09T05:04:54.930Z,7.27
2019-02-09T05:07:22.183Z,4.10
2019-02-09T05:09:49.420Z,9.10
2019-02-09T05:12:16.685Z,5.07
2019-02-09T05:14:43.904Z,2.00
2019-02-09T05:17:11.131Z,2.00
2019-02-09T05:19:38.435Z,1.23
2019-02-09T05:22:05.675Z,0.80
2019-02-09T05:24:32.912Z,4.17
2019-02-09T05:27:00.249Z,1.33
2019-02-09T05:29:27.517Z,3.67
2019-02-09T05:31:54.739Z,2.23
2019-02-09T05:34:21.983Z,2.77
2019-02-09T05:36:49.207Z,3.73
2019-02-09T05:39:16.461Z,0.73
2019-02-09T05:41:43.742Z,1.63
2019-02-09T05:44:10.986Z,2.80
2019-02-09T05:46:38.236Z,2.17
2019-02-09T05:49:05.488Z,3.30
2019-02-09T05:51:32.765Z,0.90
2019-02-09T05:54:00.101Z,2.97
2019-02-09T05:56:46.840Z,2.87
2019-02-09T05:59:14.056Z,2.00
2019-02-09T06:01:41.317Z,8.20
2019-02-09T06:04:08.550Z,4.53
2019-02-09T06:06:35.788Z,3.83
2019-02-09T06:09:06.185Z,3.63
2019-02-09T06:11:33.508Z,3.77
2019-02-09T06:14:00.737Z,2.67
2019-02-09T06:16:28.001Z,0.80
2019-02-09T06:18:55.231Z,1.70
2019-02-09T06:21:24.647Z,1.87
2019-02-09T06:23:51.880Z,2.70
2019-02-09T06:26:19.133Z,4.43
2019-02-09T06:28:46.474Z,3.20
2019-02-09T06:31:14.805Z,2.10
2019-02-09T06:33:42.083Z,0.73
2019-02-09T06:36:09.339Z,3.03
2019-02-09T06:38:36.580Z,2.43
2019-02-09T06:41:04.018Z,2.50
2019-02-09T06:43:31.264Z,1.33
2019-02-09T06:45:58.508Z,2.87
2019-02-09T06:48:29.802Z,5.27
2019-02-09T06:50:58.807Z,5.47
2019-02-09T06:53:26.031Z,2.20
2019-02-09T06:55:53.312Z,5.73
2019-02-09T06:58:20.609Z,10.63
2019-02-09T07:00:47.838Z,12.10
2019-02-09T07:03:15.098Z,3.50
2019-02-09T07:05:42.343Z,7.53
2019-02-09T07:08:09.707Z,4.63
2019-02-09T07:10:36.980Z,10.57
2019-02-09T07:13:04.399Z,11.97
2019-02-09T07:15:31.953Z,6.00
2019-02-09T07:18:00.649Z,4.30
2019-02-09T07:20:30.997Z,4.67
2019-02-09T07:22:58.308Z,7.70
2019-02-09T07:25:25.760Z,3.00
2019-02-09T07:27:53.119Z,4.37
2019-02-09T07:30:25.162Z,3.63
2019-02-09T07:32:52.712Z,4.73
2019-02-09T07:35:20.079Z,3.50
2019-02-09T07:37:47.753Z,4.00
2019-02-09T07:40:15.255Z,2.53
2019-02-09T07:42:42.597Z,5.93
2019-02-09T07:45:11.985Z,3.27
2019-02-09T07:47:39.211Z,5.23
2019-02-09T07:50:08.147Z,3.23
2019-02-09T07:52:35.397Z,2.80
2019-02-09T07:55:03.458Z,3.97
2019-02-09T07:57:30.707Z,5.50
2019-02-09T07:59:57.933Z,1.30
2019-02-09T08:02:25.146Z,8.33
2019-02-09T08:04:52.465Z,1.53
2019-02-09T08:07:20.090Z,4.20
2019-02-09T08:09:47.507Z,4.97
2019-02-09T08:12:14.838Z,1.70
2019-02-09T08:14:42.337Z,4.47
2019-02-09T08:17:09.772Z,1.80
2019-02-09T08:19:37.088Z,4.40
2019-02-09T08:22:04.578Z,4.70
2019-02-09T08:24:31.895Z,1.90
2019-02-09T08:26:59.246Z,2.00
2019-02-09T08:29:26.498Z,1.70
2019-02-09T08:31:53.779Z,3.43
2019-02-09T08:34:21.119Z,4.73
2019-02-09T08:36:48.353Z,6.47
2019-02-09T08:39:16.068Z,2.53
2019-02-09T08:41:43.460Z,1.43
2019-02-09T08:44:11.228Z,2.67
2019-02-09T08:46:38.546Z,8.20
2019-02-09T08:49:05.815Z,4.97
2019-02-09T08:51:33.099Z,6.70
2019-02-09T08:54:00.386Z,4.80
2019-02-09T08:56:28.852Z,8.23
2019-02-09T08:58:56.463Z,5.30
2019-02-09T09:01:24.844Z,7.60
2019-02-09T09:03:52.237Z,6.07
2019-02-09T09:06:19.903Z,5.20
2019-02-09T09:08:47.130Z,2.83
2019-02-09T09:11:14.455Z,7.73
2019-02-09T09:13:42.439Z,7.80
2019-02-09T09:16:12.003Z,7.50
2019-02-09T09:18:39.392Z,9.80
2019-02-09T09:21:06.877Z,12.43
2019-02-09T09:23:34.137Z,11.13
2019-02-09T09:26:01.383Z,9.53
2019-02-09T09:28:28.692Z,13.23
2019-02-09T09:30:55.976Z,16.40
2019-02-09T09:33:23.404Z,7.00
2019-02-09T09:35:50.649Z,8.87
2019-02-09T09:38:17.939Z,8.27
2019-02-09T09:40:45.336Z,12.13
2019-02-09T09:43:12.999Z,15.90
2019-02-09T09:45:40.403Z,10.37
2019-02-09T09:48:09.928Z,5.53
2019-02-09T09:50:37.227Z,8.77
2019-02-09T09:53:24.012Z,3.17
2019-02-09T09:55:51.251Z,8.50
2019-02-09T09:58:18.515Z,8.10
2019-02-09T10:00:45.947Z,7.30
2019-02-09T10:03:13.292Z,6.80
2019-02-09T10:05:40.755Z,9.20
2019-02-09T10:08:08.537Z,13.63
2019-02-09T10:10:36.104Z,5.97
2019-02-09T10:13:04.571Z,11.80
2019-02-09T10:15:33.022Z,31.57
2019-02-09T10:18:00.363Z,23.13
2019-02-09T10:20:27.660Z,14.17
2019-02-09T10:22:54.936Z,11.20
2019-02-09T10:25:22.687Z,13.40
2019-02-09T10:27:50.530Z,24.67
2019-02-09T10:30:20.140Z,9.50
2019-02-09T10:32:47.395Z,5.50
2019-02-09T10:35:14.964Z,12.63
2019-02-09T10:37:42.918Z,7.83
2019-02-09T10:40:13.687Z,8.13
2019-02-09T10:42:41.284Z,8.00
2019-02-09T10:45:12.489Z,7.70
2019-02-09T10:47:39.880Z,8.77
2019-02-09T10:50:11.427Z,7.63
2019-02-09T10:52:38.892Z,5.97
2019-02-09T10:55:07.150Z,3.77
2019-02-09T10:57:34.387Z,5.97
2019-02-09T11:00:01.758Z,4.60
2019-02-09T11:02:29.124Z,1.87
2019-02-09T11:04:57.465Z,4.70
2019-02-09T11:07:24.827Z,4.67
2019-02-09T11:09:52.127Z,5.40
2019-02-09T11:12:20.575Z,5.70
2019-02-09T11:14:47.900Z,4.43
2019-02-09T11:17:15.404Z,10.20
2019-02-09T11:19:42.675Z,5.57
2019-02-09T11:22:09.960Z,9.13
2019-02-09T11:24:37.296Z,8.33
2019-02-09T11:27:04.668Z,8.20
2019-02-09T11:29:32.012Z,8.37
2019-02-09T11:31:59.388Z,9.73
2019-02-09T11:34:26.861Z,10.00
2019-02-09T11:36:54.117Z,20.30
2019-02-09T11:39:21.631Z,22.37
2019-02-09T11:41:48.936Z,10.07
2019-02-09T11:44:16.255Z,6.87
2019-02-09T11:46:52.718Z,9.90
2019-02-09T11:49:20.112Z,10.47
2019-02-09T11:51:47.368Z,5.83
2019-02-09T11:54:14.767Z,7.33
2019-02-09T11:56:42.071Z,6.43
2019-02-09T11:59:09.467Z,4.33
2019-02-09T12:01:36.715Z,7.23
2019-02-09T12:04:04.462Z,8.90
2019-02-09T12:06:31.783Z,3.00
2019-02-09T12:08:59.082Z,4.20
2019-02-09T12:11:26.427Z,1.90
2019-02-09T12:13:55.315Z,1.90
2019-02-09T12:16:22.943Z,3.00
2019-02-09T12:18:50.188Z,14.03
2019-02-09T12:21:17.451Z,22.30
2019-02-09T12:23:44.709Z,6.00
2019-02-09T12:26:11.961Z,1.93
2019-02-09T12:28:39.201Z,5.50
2019-02-09T12:31:09.089Z,2.40
2019-02-09T12:33:36.320Z,5.87
2019-02-09T12:36:03.827Z,5.77
2019-02-09T12:38:31.143Z,7.10
2019-02-09T12:40:58.423Z,6.07
2019-02-09T12:43:25.660Z,14.93
2019-02-09T12:45:52.922Z,6.90
2019-02-09T12:48:20.235Z,3.50
2019-02-09T12:50:47.463Z,5.17
2019-02-09T12:53:14.723Z,1.87
2019-02-09T12:55:42.007Z,8.47
2019-02-09T12:58:09.381Z,4.03
2019-02-09T13:00:37.019Z,5.73
2019-02-09T13:03:16.391Z,6.70
2019-02-09T13:05:43.751Z,7.03
2019-02-09T13:08:11.037Z,5.00
2019-02-09T13:10:38.408Z,6.57
2019-02-09T13:13:05.651Z,5.60
2019-02-09T13:15:52.397Z,11.77
2019-02-09T13:18:19.636Z,9.37
2019-02-09T13:20:46.955Z,14.43
2019-02-09T13:23:14.257Z,4.90
2019-02-09T13:25:41.500Z,6.83
2019-02-09T13:28:08.859Z,20.30
2019-02-09T13:30:36.439Z,25.00
2019-02-09T13:33:03.879Z,13.27
2019-02-09T13:35:31.120Z,9.37
2019-02-09T13:37:59.087Z,14.13
2019-02-09T13:40:27.140Z,9.87
2019-02-09T13:42:54.729Z,18.80
2019-02-09T13:45:29.991Z,8.70
2019-02-09T13:47:57.388Z,13.30
2019-02-09T13:50:25.059Z,14.07
2019-02-09T13:52:52.318Z,14.67
2019-02-09T13:55:20.415Z,8.13
2019-02-09T13:57:47.643Z,10.27
2019-02-09T14:00:19.847Z,12.80
2019-02-09T14:02:47.390Z,11.03
2019-02-09T14:05:14.683Z,15.00
2019-02-09T14:07:42.232Z,9.10
2019-02-09T14:10:10.456Z,7.77
2019-02-09T14:12:37.692Z,8.63
2019-02-09T14:15:06.627Z,8.97
2019-02-09T14:17:33.883Z,10.80
2019-02-09T14:20:01.200Z,9.63
2019-02-09T14:22:29.322Z,13.23
2019-02-09T14:24:56.551Z,13.63
2019-02-09T14:27:25.602Z,10.70
2019-02-09T14:29:52.888Z,10.60
2019-02-09T14:32:20.220Z,19.80
2019-02-09T14:34:47.463Z,7.60
2019-02-09T14:37:14.728Z,11.50
2019-02-09T14:39:41.959Z,15.20
2019-02-09T14:42:09.239Z,17.87
2019-02-09T14:44:36.475Z,9.70
2019-02-09T14:47:04.080Z,11.40
2019-02-09T14:49:31.334Z,10.80
2019-02-09T14:51:58.556Z,5.70
2019-02-09T14:54:25.812Z,6.00
2019-02-09T14:56:53.068Z,13.03
2019-02-09T14:59:20.311Z,4.97
2019-02-09T15:01:47.572Z,10.47
2019-02-09T15:04:14.804Z,6.77
2019-02-09T15:06:42.127Z,7.77
2019-02-09T15:09:09.440Z,11.40
2019-02-09T15:11:36.723Z,11.33
2019-02-09T15:14:04.179Z,6.90
2019-02-09T15:16:46.605Z,7.40
2019-02-09T15:19:13.867Z,9.57
2019-02-09T15:21:41.139Z,6.23
2019-02-09T15:24:08.481Z,12.40
2019-02-09T15:26:35.712Z,9.67
2019-02-09T15:29:03.351Z,8.13
2019-02-09T15:31:30.616Z,12.63
2019-02-09T15:33:57.939Z,9.47
2019-02-09T15:36:25.183Z,13.07
2019-02-09T15:38:52.462Z,8.77
2019-02-09T15:41:19.755Z,15.07
2019-02-09T15:43:46.977Z,10.30
2019-02-09T15:46:14.232Z,9.03
2019-02-09T15:48:41.479Z,15.80
2019-02-09T15:51:08.722Z,10.27
2019-02-09T15:53:35.956Z,9.20
2019-02-09T15:56:03.387Z,11.43
2019-02-09T15:58:30.668Z,12.03
2019-02-09T16:00:58.157Z,11.47
2019-02-09T16:03:25.506Z,9.20
2019-02-09T16:05:52.807Z,13.60
2019-02-09T16:08:20.117Z,13.70
2019-02-09T16:10:47.399Z,9.77
2019-02-09T16:13:15.215Z,17.23
2019-02-09T16:15:42.521Z,12.37
2019-02-09T16:18:10.043Z,6.27
2019-02-09T16:20:37.355Z,15.53
2019-02-09T16:23:04.943Z,12.27
2019-02-09T16:25:32.451Z,10.40
2019-02-09T16:27:59.823Z,11.03
2019-02-09T16:30:27.109Z,14.07
2019-02-09T16:32:54.495Z,8.50
2019-02-09T16:35:22.283Z,6.80
2019-02-09T16:37:49.719Z,23.87
2019-02-09T16:40:22.170Z,7.87
2019-02-09T16:42:50.084Z,5.43
2019-02-09T16:45:37.057Z,7.33
2019-02-09T16:48:04.826Z,5.53
2019-02-09T16:50:32.064Z,7.73
2019-02-09T16:52:59.372Z,5.73
2019-02-09T16:55:26.754Z,10.00
2019-02-09T16:57:54.079Z,13.17
2019-02-09T17:00:25.331Z,5.17
2019-02-09T17:02:54.013Z,15.47
2019-02-09T17:05:41.071Z,8.73
2019-02-09T17:08:11.661Z,6.33
2019-02-09T17:10:39.054Z,11.33
2019-02-09T17:13:06.550Z,12.17
2019-02-09T17:15:34.077Z,14.40
2019-02-09T17:18:01.588Z,12.83
2019-02-09T17:20:28.932Z,14.90
2019-02-09T17:22:56.196Z,18.20
2019-02-09T17:25:23.690Z,13.23
2019-02-09T17:27:51.037Z,8.23
2019-02-09T17:30:23.008Z,10.83
2019-02-09T17:32:50.484Z,9.13
2019-02-09T17:35:18.035Z,9.90
2019-02-09T17:37:45.383Z,11.53
2019-02-09T17:40:14.155Z,9.33
2019-02-09T17:42:41.466Z,11.03
2019-02-09T17:45:14.904Z,21.93
2019-02-09T17:47:42.187Z,18.50
2019-02-09T17:50:10.959Z,16.73
2019-02-09T17:52:39.336Z,8.90
2019-02-09T17:55:08.631Z,15.27
2019-02-09T17:57:36.127Z,8.10
2019-02-09T18:00:06.967Z,12.60
2019-02-09T18:02:34.284Z,9.47
2019-02-09T18:05:01.528Z,9.73
2019-02-09T18:07:28.793Z,18.87
2019-02-09T18:09:56.038Z,10.37
2019-02-09T18:12:23.319Z,15.17
2019-02-09T18:14:50.627Z,10.60
2019-02-09T18:17:18.978Z,14.90
2019-02-09T18:19:47.106Z,15.80
2019-02-09T18:22:17.436Z,12.73
2019-02-09T18:24:45.534Z,9.77
2019-02-09T18:27:13.504Z,12.53
2019-02-09T18:29:42.351Z,13.37
2019-02-09T18:32:11.972Z,6.63
2019-02-09T18:34:42.321Z,15.10
2019-02-09T18:37:13.817Z,11.80
2019-02-09T18:39:46.126Z,10.27
2019-02-09T18:42:14.704Z,10.93
2019-02-09T18:44:44.086Z,12.20
2019-02-09T18:47:14.392Z,11.60
2019-02-09T18:49:45.657Z,9.53
2019-02-09T18:52:32.705Z,12.53
2019-02-09T18:55:11.405Z,9.63
2019-02-09T18:57:40.129Z,10.03
2019-02-09T19:00:13.896Z,15.87
2019-02-09T19:02:47.600Z,12.33
2019-02-09T19:05:15.261Z,7.90
2019-02-09T19:07:42.949Z,17.03
2019-02-09T19:10:29.994Z,13.60
2019-02-09T19:12:57.771Z,9.57
2019-02-09T19:15:36.110Z,13.17
2019-02-09T19:18:07.035Z,17.43
2019-02-09T19:20:37.083Z,12.77
2019-02-09T19:23:05.189Z,8.70
2019-02-09T19:25:33.999Z,9.83
2019-02-09T19:28:01.360Z,11.90
2019-02-09T19:30:29.028Z,16.27
2019-02-09T19:32:56.605Z,13.07
2019-02-09T19:35:24.020Z,13.80
2019-02-09T19:37:51.307Z,12.30
2019-02-09T19:40:18.652Z,16.37
2019-02-09T19:42:46.916Z,15.37
2019-02-09T19:45:19.425Z,14.57
2019-02-09T19:47:46.745Z,12.97
2019-02-09T19:50:14.260Z,10.67
2019-02-09T19:52:41.653Z,19.70
2019-02-09T19:55:12.513Z,17.83
2019-02-09T19:57:39.890Z,10.03
2019-02-09T20:00:11.487Z,8.87
2019-02-09T20:02:38.744Z,11.43
2019-02-09T20:05:19.688Z,15.70
2019-02-09T20:07:42.147Z,8.17
2019-02-09T20:10:11.041Z,19.07
2019-02-09T20:12:46.561Z,12.33
2019-02-09T20:15:14.405Z,12.30
2019-02-09T20:17:41.644Z,11.50
2019-02-09T20:20:10.279Z,18.70
2019-02-09T20:22:37.607Z,17.10
2019-02-09T20:25:08.512Z,16.70
2019-02-09T20:27:35.852Z,14.87
2019-02-09T20:30:06.195Z,19.23
2019-02-09T20:32:33.448Z,25.40
2019-02-09T20:35:00.692Z,32.27
2019-02-09T20:37:28.023Z,32.33
2019-02-09T20:39:55.317Z,31.60
2019-02-09T20:42:22.575Z,29.77
2019-02-09T20:44:49.889Z,40.03
2019-02-09T20:47:17.248Z,20.60
2019-02-09T20:49:44.671Z,17.30
2019-02-09T20:52:12.077Z,28.47
2019-02-09T20:54:39.445Z,16.40
2019-02-09T20:57:06.823Z,23.67
2019-02-09T20:59:34.289Z,20.60
2019-02-09T21:02:01.726Z,25.27
2019-02-09T21:04:29.079Z,14.63
2019-02-09T21:06:56.355Z,19.17
2019-02-09T21:09:24.533Z,19.17
2019-02-09T21:11:52.018Z,16.83
2019-02-09T21:14:19.347Z,19.40
2019-02-09T21:16:51.617Z,24.50
2019-02-09T21:19:15.849Z,25.70
2019-02-09T21:21:43.188Z,19.87
2019-02-09T21:24:10.567Z,18.50
2019-02-09T21:26:37.959Z,20.33
2019-02-09T21:29:05.236Z,30.13
2019-02-09T21:31:33.208Z,20.07
2019-02-09T21:34:00.443Z,20.30
2019-02-09T21:36:27.696Z,16.37
2019-02-09T21:39:05.248Z,20.77
2019-02-09T21:41:45.247Z,23.17
2019-02-09T21:44:23.065Z,24.83
2019-02-09T21:47:01.146Z,22.43
2019-02-09T21:49:45.558Z,23.77
2019-02-09T21:52:40.414Z,23.70
2019-02-09T21:55:22.179Z,23.07
2019-02-09T21:58:06.807Z,23.03
2019-02-09T22:00:46.994Z,19.33
2019-02-09T22:03:22.926Z,19.07
2019-02-09T22:06:17.158Z,18.13
2019-02-09T22:09:05.022Z,21.17
2019-02-09T22:11:42.704Z,17.37
2019-02-09T22:14:25.529Z,20.60
2019-02-09T22:16:58.136Z,19.83
2019-02-09T22:19:59.809Z,23.67
2019-02-09T22:23:03.999Z,21.37
2019-02-09T22:25:52.534Z,26.63
2019-02-09T22:28:58.509Z,26.10
2019-02-09T22:31:51.239Z,27.37
2019-02-09T22:35:01.659Z,26.13
2019-02-09T22:38:06.445Z,27.43
2019-02-09T22:40:52.230Z,17.63
2019-02-09T22:43:44.637Z,20.73
2019-02-09T22:46:48.476Z,16.87
2019-02-09T22:49:39.804Z,18.10
2019-02-09T22:52:35.882Z,28.73
2019-02-09T22:55:12.418Z,12.40
2019-02-09T22:58:03.485Z,17.37
2019-02-09T23:01:07.097Z,17.17
2019-02-09T23:04:04.995Z,20.20
2019-02-09T23:07:08.754Z,23.97
2019-02-09T23:09:58.876Z,17.27
2019-02-09T23:12:48.288Z,16.27
2019-02-09T23:15:34.158Z,16.63
2019-02-09T23:18:39.672Z,13.93
2019-02-09T23:21:45.877Z,16.27
2019-02-09T23:24:55.422Z,19.67
2019-02-09T23:28:05.418Z,11.30
2019-02-09T23:31:06.320Z,18.63
2019-02-09T23:34:16.448Z,15.37
2019-02-09T23:37:41.677Z,8.83
2019-02-09T23:40:27.280Z,21.07
2019-02-09T23:43:03.430Z,13.47
2019-02-09T23:46:22.167Z,22.63
2019-02-09T23:49:28.525Z,17.20
2019-02-09T23:52:47.670Z,15.80
2019-02-09T23:55:58.633Z,16.70
2019-02-09T23:59:02.604Z,17.27
